sensor_id;sensor_type;location;lat;lon;timestamp;temperature;humidity
25983;DHT22;13773;48.868;10.730;2023-09-07T00:01:07;13.80;99.90
25983;DHT22;13773;48.868;10.730;2023-09-07T00:03:32;15.70;99.90
25983;DHT22;13773;48.868;10.730;2023-09-07T00:05:58;15.60;99.90
25983;DHT22;13773;48.868;10.730;2023-09-07T00:08:24;15.80;99.90
25983;DHT22;13773;48.868;10.730;2023-09-07T00:10:51;15.90;99.90
25983;DHT22;13773;48.868;10.730;2023-09-07T00:13:17;15.90;99.90
25983;DHT22;13773;48.868;10.730;2023-09-07T00:15:43;16.10;99.90
25983;DHT22;13773;48.868;10.730;2023-09-07T00:18:09;16.20;99.90
25983;DHT22;13773;48.868;10.730;2023-09-07T00:20:35;16.20;99.90
25983;DHT22;13773;48.868;10.730;2023-09-07T00:23:01;16.20;99.90
25983;DHT22;13773;48.868;10.730;2023-09-07T00:25:27;16.10;99.90
25983;DHT22;13773;48.868;10.730;2023-09-07T00:27:53;16.00;99.90
25983;DHT22;13773;48.868;10.730;2023-09-07T00:30:18;15.90;99.90
25983;DHT22;13773;48.868;10.730;2023-09-07T00:32:44;15.90;99.90
25983;DHT22;13773;48.868;10.730;2023-09-07T00:35:10;16.10;99.90
25983;DHT22;13773;48.868;10.730;2023-09-07T00:37:37;15.90;99.90
25983;DHT22;13773;48.868;10.730;2023-09-07T00:40:03;15.50;99.90
25983;DHT22;13773;48.868;10.730;2023-09-07T00:42:29;15.80;99.90
25983;DHT22;13773;48.868;10.730;2023-09-07T00:44:55;15.80;99.90
25983;DHT22;13773;48.868;10.730;2023-09-07T00:47:21;15.80;99.90
25983;DHT22;13773;48.868;10.730;2023-09-07T00:49:48;15.70;99.90
25983;DHT22;13773;48.868;10.730;2023-09-07T00:52:14;15.60;99.90
25983;DHT22;13773;48.868;10.730;2023-09-07T00:54:40;15.60;99.90
25983;DHT22;13773;48.868;10.730;2023-09-07T00:57:07;15.60;99.90
25983;DHT22;13773;48.868;10.730;2023-09-07T00:59:34;15.60;99.90
25983;DHT22;13773;48.868;10.730;2023-09-07T01:01:59;16.20;99.90
25983;DHT22;13773;48.868;10.730;2023-09-07T01:04:25;16.10;99.90
25983;DHT22;13773;48.868;10.730;2023-09-07T01:06:56;16.10;99.90
25983;DHT22;13773;48.868;10.730;2023-09-07T01:09:24;15.90;99.90
25983;DHT22;13773;48.868;10.730;2023-09-07T01:11:52;16.20;99.90
25983;DHT22;13773;48.868;10.730;2023-09-07T01:14:19;16.00;99.90
25983;DHT22;13773;48.868;10.730;2023-09-07T01:16:45;15.80;99.90
25983;DHT22;13773;48.868;10.730;2023-09-07T01:19:11;15.90;99.90
25983;DHT22;13773;48.868;10.730;2023-09-07T01:21:38;16.00;99.90
25983;DHT22;13773;48.868;10.730;2023-09-07T01:24:09;16.10;99.90
25983;DHT22;13773;48.868;10.730;2023-09-07T01:26:38;16.00;99.90
25983;DHT22;13773;48.868;10.730;2023-09-07T01:29:07;15.90;99.90
25983;DHT22;13773;48.868;10.730;2023-09-07T01:31:37;15.70;99.90
25983;DHT22;13773;48.868;10.730;2023-09-07T01:34:04;15.70;99.90
25983;DHT22;13773;48.868;10.730;2023-09-07T01:36:30;16.00;99.90
25983;DHT22;13773;48.868;10.730;2023-09-07T01:38:56;15.80;99.90
25983;DHT22;13773;48.868;10.730;2023-09-07T01:41:21;15.60;99.90
25983;DHT22;13773;48.868;10.730;2023-09-07T01:43:48;15.40;99.90
25983;DHT22;13773;48.868;10.730;2023-09-07T01:46:14;15.60;99.90
25983;DHT22;13773;48.868;10.730;2023-09-07T01:48:39;15.70;99.90
25983;DHT22;13773;48.868;10.730;2023-09-07T01:51:07;15.50;99.90
25983;DHT22;13773;48.868;10.730;2023-09-07T01:53:33;15.40;99.90
25983;DHT22;13773;48.868;10.730;2023-09-07T01:55:59;15.20;99.90
25983;DHT22;13773;48.868;10.730;2023-09-07T01:58:25;14.90;99.90
25983;DHT22;13773;48.868;10.730;2023-09-07T02:00:52;15.10;99.90
25983;DHT22;13773;48.868;10.730;2023-09-07T02:03:18;15.00;99.90
25983;DHT22;13773;48.868;10.730;2023-09-07T02:05:45;15.00;99.90
25983;DHT22;13773;48.868;10.730;2023-09-07T02:08:11;14.90;99.90
25983;DHT22;13773;48.868;10.730;2023-09-07T02:10:37;15.10;99.90
25983;DHT22;13773;48.868;10.730;2023-09-07T02:13:03;15.50;99.90
25983;DHT22;13773;48.868;10.730;2023-09-07T02:15:29;15.60;99.90
25983;DHT22;13773;48.868;10.730;2023-09-07T02:17:55;16.20;99.90
25983;DHT22;13773;48.868;10.730;2023-09-07T02:20:20;16.10;99.90
25983;DHT22;13773;48.868;10.730;2023-09-07T02:22:46;15.90;99.90
25983;DHT22;13773;48.868;10.730;2023-09-07T02:25:12;15.60;99.90
25983;DHT22;13773;48.868;10.730;2023-09-07T02:27:38;15.90;99.90
25983;DHT22;13773;48.868;10.730;2023-09-07T02:30:04;16.20;99.90
25983;DHT22;13773;48.868;10.730;2023-09-07T02:32:31;16.10;99.90
25983;DHT22;13773;48.868;10.730;2023-09-07T02:34:57;15.80;99.90
25983;DHT22;13773;48.868;10.730;2023-09-07T02:39:58;15.70;99.90
25983;DHT22;13773;48.868;10.730;2023-09-07T02:42:24;15.50;99.90
25983;DHT22;13773;48.868;10.730;2023-09-07T02:44:50;15.50;99.90
25983;DHT22;13773;48.868;10.730;2023-09-07T02:47:15;15.50;99.90
25983;DHT22;13773;48.868;10.730;2023-09-07T02:49:42;15.50;99.90
25983;DHT22;13773;48.868;10.730;2023-09-07T02:52:07;15.30;99.90
25983;DHT22;13773;48.868;10.730;2023-09-07T02:54:33;15.60;99.90
25983;DHT22;13773;48.868;10.730;2023-09-07T02:56:59;15.50;99.90
25983;DHT22;13773;48.868;10.730;2023-09-07T02:59:24;15.20;99.90
25983;DHT22;13773;48.868;10.730;2023-09-07T03:01:51;15.00;99.90
25983;DHT22;13773;48.868;10.730;2023-09-07T03:04:16;14.70;99.90
25983;DHT22;13773;48.868;10.730;2023-09-07T03:06:42;14.50;99.90
25983;DHT22;13773;48.868;10.730;2023-09-07T03:09:07;14.20;99.90
25983;DHT22;13773;48.868;10.730;2023-09-07T03:11:35;14.00;99.90
25983;DHT22;13773;48.868;10.730;2023-09-07T03:14:00;13.90;99.90
25983;DHT22;13773;48.868;10.730;2023-09-07T03:16:26;13.80;99.90
25983;DHT22;13773;48.868;10.730;2023-09-07T03:18:52;13.70;99.90
25983;DHT22;13773;48.868;10.730;2023-09-07T03:21:18;13.60;99.90
25983;DHT22;13773;48.868;10.730;2023-09-07T03:23:43;13.50;99.90
25983;DHT22;13773;48.868;10.730;2023-09-07T03:26:10;13.40;99.90
25983;DHT22;13773;48.868;10.730;2023-09-07T03:28:36;13.40;99.90
25983;DHT22;13773;48.868;10.730;2023-09-07T03:31:01;13.30;99.90
25983;DHT22;13773;48.868;10.730;2023-09-07T03:33:27;13.20;99.90
25983;DHT22;13773;48.868;10.730;2023-09-07T03:35:53;13.20;99.90
25983;DHT22;13773;48.868;10.730;2023-09-07T03:38:24;13.10;99.90
25983;DHT22;13773;48.868;10.730;2023-09-07T03:40:49;13.10;99.90
25983;DHT22;13773;48.868;10.730;2023-09-07T03:43:15;13.00;99.90
25983;DHT22;13773;48.868;10.730;2023-09-07T03:45:41;13.00;99.90
25983;DHT22;13773;48.868;10.730;2023-09-07T03:48:07;12.90;99.90
25983;DHT22;13773;48.868;10.730;2023-09-07T03:50:34;12.90;99.90
25983;DHT22;13773;48.868;10.730;2023-09-07T03:52:59;12.80;99.90
25983;DHT22;13773;48.868;10.730;2023-09-07T03:55:25;12.70;99.90
25983;DHT22;13773;48.868;10.730;2023-09-07T03:57:50;12.70;99.90
25983;DHT22;13773;48.868;10.730;2023-09-07T04:00:16;12.60;99.90
25983;DHT22;13773;48.868;10.730;2023-09-07T04:02:43;12.70;99.90
25983;DHT22;13773;48.868;10.730;2023-09-07T04:05:09;12.70;99.90
25983;DHT22;13773;48.868;10.730;2023-09-07T04:07:36;12.70;99.90
25983;DHT22;13773;48.868;10.730;2023-09-07T04:10:02;12.60;99.90
25983;DHT22;13773;48.868;10.730;2023-09-07T04:12:28;12.60;99.90
25983;DHT22;13773;48.868;10.730;2023-09-07T04:14:54;12.60;99.90
25983;DHT22;13773;48.868;10.730;2023-09-07T04:17:19;12.70;99.90
25983;DHT22;13773;48.868;10.730;2023-09-07T04:19:45;12.70;99.90
25983;DHT22;13773;48.868;10.730;2023-09-07T04:22:11;12.70;99.90
25983;DHT22;13773;48.868;10.730;2023-09-07T04:24:37;12.70;99.90
25983;DHT22;13773;48.868;10.730;2023-09-07T04:27:03;12.70;99.90
25983;DHT22;13773;48.868;10.730;2023-09-07T04:29:29;12.70;99.90
25983;DHT22;13773;48.868;10.730;2023-09-07T04:31:55;12.70;99.90
25983;DHT22;13773;48.868;10.730;2023-09-07T04:34:21;12.70;99.90
25983;DHT22;13773;48.868;10.730;2023-09-07T04:36:47;12.70;99.90
25983;DHT22;13773;48.868;10.730;2023-09-07T04:39:13;12.70;99.90
25983;DHT22;13773;48.868;10.730;2023-09-07T04:41:40;12.70;99.90
25983;DHT22;13773;48.868;10.730;2023-09-07T04:44:05;12.70;99.90
25983;DHT22;13773;48.868;10.730;2023-09-07T04:46:31;12.70;99.90
25983;DHT22;13773;48.868;10.730;2023-09-07T04:48:57;12.70;99.90
25983;DHT22;13773;48.868;10.730;2023-09-07T04:51:22;12.70;99.90
25983;DHT22;13773;48.868;10.730;2023-09-07T04:53:49;12.80;99.90
25983;DHT22;13773;48.868;10.730;2023-09-07T04:56:15;12.80;99.90
25983;DHT22;13773;48.868;10.730;2023-09-07T04:58:41;12.70;99.90
25983;DHT22;13773;48.868;10.730;2023-09-07T05:01:11;12.80;99.90
25983;DHT22;13773;48.868;10.730;2023-09-07T05:03:37;12.90;99.90
25983;DHT22;13773;48.868;10.730;2023-09-07T05:06:05;12.80;99.90
25983;DHT22;13773;48.868;10.730;2023-09-07T05:08:31;12.80;99.90
25983;DHT22;13773;48.868;10.730;2023-09-07T05:10:58;12.70;99.90
25983;DHT22;13773;48.868;10.730;2023-09-07T05:13:25;12.70;99.90
25983;DHT22;13773;48.868;10.730;2023-09-07T05:15:52;12.70;99.90
25983;DHT22;13773;48.868;10.730;2023-09-07T05:18:18;12.70;99.90
25983;DHT22;13773;48.868;10.730;2023-09-07T05:20:45;12.80;99.90
25983;DHT22;13773;48.868;10.730;2023-09-07T05:23:14;12.90;99.90
25983;DHT22;13773;48.868;10.730;2023-09-07T05:25:45;12.90;99.90
25983;DHT22;13773;48.868;10.730;2023-09-07T05:28:15;12.90;99.90
25983;DHT22;13773;48.868;10.730;2023-09-07T05:30:42;12.90;99.90
25983;DHT22;13773;48.868;10.730;2023-09-07T05:33:12;12.90;99.90
25983;DHT22;13773;48.868;10.730;2023-09-07T05:35:38;13.00;99.90
25983;DHT22;13773;48.868;10.730;2023-09-07T05:38:05;13.00;99.90
25983;DHT22;13773;48.868;10.730;2023-09-07T05:40:39;13.00;99.90
25983;DHT22;13773;48.868;10.730;2023-09-07T05:43:05;13.00;99.90
25983;DHT22;13773;48.868;10.730;2023-09-07T05:45:33;13.00;99.90
25983;DHT22;13773;48.868;10.730;2023-09-07T05:47:59;13.00;99.90
25983;DHT22;13773;48.868;10.730;2023-09-07T05:50:25;13.00;99.90
25983;DHT22;13773;48.868;10.730;2023-09-07T05:52:51;13.10;99.90
25983;DHT22;13773;48.868;10.730;2023-09-07T05:55:17;13.10;99.90
25983;DHT22;13773;48.868;10.730;2023-09-07T05:57:42;13.20;99.90
25983;DHT22;13773;48.868;10.730;2023-09-07T06:00:09;13.20;99.90
25983;DHT22;13773;48.868;10.730;2023-09-07T06:02:35;13.30;99.90
25983;DHT22;13773;48.868;10.730;2023-09-07T06:05:01;13.30;99.90
25983;DHT22;13773;48.868;10.730;2023-09-07T06:07:27;13.30;99.90
25983;DHT22;13773;48.868;10.730;2023-09-07T06:09:53;13.30;99.90
25983;DHT22;13773;48.868;10.730;2023-09-07T06:12:18;13.30;99.90
25983;DHT22;13773;48.868;10.730;2023-09-07T06:14:45;13.30;99.90
25983;DHT22;13773;48.868;10.730;2023-09-07T06:17:12;13.30;99.90
25983;DHT22;13773;48.868;10.730;2023-09-07T06:19:37;13.30;99.90
25983;DHT22;13773;48.868;10.730;2023-09-07T06:22:04;13.40;99.90
25983;DHT22;13773;48.868;10.730;2023-09-07T06:24:29;13.40;99.90
25983;DHT22;13773;48.868;10.730;2023-09-07T06:26:55;13.50;99.90
25983;DHT22;13773;48.868;10.730;2023-09-07T06:29:21;13.60;99.90
25983;DHT22;13773;48.868;10.730;2023-09-07T06:31:46;13.70;99.90
25983;DHT22;13773;48.868;10.730;2023-09-07T06:34:15;13.90;99.90
25983;DHT22;13773;48.868;10.730;2023-09-07T06:36:41;14.40;99.90
25983;DHT22;13773;48.868;10.730;2023-09-07T06:39:06;14.30;99.90
25983;DHT22;13773;48.868;10.730;2023-09-07T06:41:33;14.40;99.90
25983;DHT22;13773;48.868;10.730;2023-09-07T06:43:58;14.70;99.90
25983;DHT22;13773;48.868;10.730;2023-09-07T06:46:24;14.80;99.90
25983;DHT22;13773;48.868;10.730;2023-09-07T06:48:50;14.90;99.90
25983;DHT22;13773;48.868;10.730;2023-09-07T06:51:15;15.30;99.90
25983;DHT22;13773;48.868;10.730;2023-09-07T06:53:41;15.70;99.90
25983;DHT22;13773;48.868;10.730;2023-09-07T06:56:07;15.90;99.90
25983;DHT22;13773;48.868;10.730;2023-09-07T06:58:32;16.10;99.90
25983;DHT22;13773;48.868;10.730;2023-09-07T07:01:00;16.50;99.90
25983;DHT22;13773;48.868;10.730;2023-09-07T07:03:27;16.80;99.90
25983;DHT22;13773;48.868;10.730;2023-09-07T07:05:54;17.10;99.90
25983;DHT22;13773;48.868;10.730;2023-09-07T07:08:19;17.00;99.90
25983;DHT22;13773;48.868;10.730;2023-09-07T07:10:45;17.30;99.90
25983;DHT22;13773;48.868;10.730;2023-09-07T07:13:11;17.50;99.90
25983;DHT22;13773;48.868;10.730;2023-09-07T07:15:37;17.80;99.90
25983;DHT22;13773;48.868;10.730;2023-09-07T07:18:03;18.00;99.90
25983;DHT22;13773;48.868;10.730;2023-09-07T07:20:38;18.20;99.90
25983;DHT22;13773;48.868;10.730;2023-09-07T07:23:04;18.30;99.90
25983;DHT22;13773;48.868;10.730;2023-09-07T07:25:32;18.40;99.90
25983;DHT22;13773;48.868;10.730;2023-09-07T07:28:02;18.60;99.90
25983;DHT22;13773;48.868;10.730;2023-09-07T07:30:35;18.70;99.90
25983;DHT22;13773;48.868;10.730;2023-09-07T07:33:02;18.90;99.90
25983;DHT22;13773;48.868;10.730;2023-09-07T07:35:32;18.90;99.90
25983;DHT22;13773;48.868;10.730;2023-09-07T07:37:58;19.10;99.90
25983;DHT22;13773;48.868;10.730;2023-09-07T07:40:24;18.90;99.90
25983;DHT22;13773;48.868;10.730;2023-09-07T07:42:52;19.10;99.90
25983;DHT22;13773;48.868;10.730;2023-09-07T07:45:17;19.30;99.90
25983;DHT22;13773;48.868;10.730;2023-09-07T07:47:48;19.30;99.90
25983;DHT22;13773;48.868;10.730;2023-09-07T07:50:14;19.40;99.90
25983;DHT22;13773;48.868;10.730;2023-09-07T07:52:40;19.40;99.90
25983;DHT22;13773;48.868;10.730;2023-09-07T07:55:06;19.50;99.90
25983;DHT22;13773;48.868;10.730;2023-09-07T07:57:32;19.50;99.90
25983;DHT22;13773;48.868;10.730;2023-09-07T07:59:58;19.70;99.90
25983;DHT22;13773;48.868;10.730;2023-09-07T08:02:23;19.60;99.90
25983;DHT22;13773;48.868;10.730;2023-09-07T08:04:49;19.80;99.90
25983;DHT22;13773;48.868;10.730;2023-09-07T08:07:15;19.90;99.90
25983;DHT22;13773;48.868;10.730;2023-09-07T08:09:40;20.00;99.90
25983;DHT22;13773;48.868;10.730;2023-09-07T08:12:06;20.10;99.90
25983;DHT22;13773;48.868;10.730;2023-09-07T08:14:32;20.20;99.90
25983;DHT22;13773;48.868;10.730;2023-09-07T08:16:58;20.20;99.90
25983;DHT22;13773;48.868;10.730;2023-09-07T08:19:25;20.20;99.90
25983;DHT22;13773;48.868;10.730;2023-09-07T08:21:53;20.30;99.90
25983;DHT22;13773;48.868;10.730;2023-09-07T08:24:19;20.30;99.90
25983;DHT22;13773;48.868;10.730;2023-09-07T08:26:44;20.40;99.90
25983;DHT22;13773;48.868;10.730;2023-09-07T08:29:10;20.60;99.90
25983;DHT22;13773;48.868;10.730;2023-09-07T08:31:39;20.60;99.90
25983;DHT22;13773;48.868;10.730;2023-09-07T08:34:07;20.60;99.90
25983;DHT22;13773;48.868;10.730;2023-09-07T08:36:35;20.70;99.90
25983;DHT22;13773;48.868;10.730;2023-09-07T08:39:01;20.70;99.90
25983;DHT22;13773;48.868;10.730;2023-09-07T08:41:32;20.90;99.90
25983;DHT22;13773;48.868;10.730;2023-09-07T08:43:59;21.00;99.90
25983;DHT22;13773;48.868;10.730;2023-09-07T08:46:26;20.90;99.90
25983;DHT22;13773;48.868;10.730;2023-09-07T08:48:53;21.00;99.90
25983;DHT22;13773;48.868;10.730;2023-09-07T08:51:21;20.90;99.90
25983;DHT22;13773;48.868;10.730;2023-09-07T08:53:48;21.00;99.90
25983;DHT22;13773;48.868;10.730;2023-09-07T08:56:18;21.10;99.90
25983;DHT22;13773;48.868;10.730;2023-09-07T08:58:45;21.10;99.90
25983;DHT22;13773;48.868;10.730;2023-09-07T09:01:10;21.20;99.90
25983;DHT22;13773;48.868;10.730;2023-09-07T09:03:38;21.30;99.90
25983;DHT22;13773;48.868;10.730;2023-09-07T09:06:04;21.40;99.90
25983;DHT22;13773;48.868;10.730;2023-09-07T09:08:46;21.50;99.90
25983;DHT22;13773;48.868;10.730;2023-09-07T09:11:14;21.70;99.90
25983;DHT22;13773;48.868;10.730;2023-09-07T09:13:40;21.80;99.90
25983;DHT22;13773;48.868;10.730;2023-09-07T09:16:06;21.80;99.90
25983;DHT22;13773;48.868;10.730;2023-09-07T09:18:32;21.90;99.90
25983;DHT22;13773;48.868;10.730;2023-09-07T09:20:58;21.70;99.90
25983;DHT22;13773;48.868;10.730;2023-09-07T09:23:33;21.70;99.90
25983;DHT22;13773;48.868;10.730;2023-09-07T09:26:00;21.80;99.90
25983;DHT22;13773;48.868;10.730;2023-09-07T09:28:26;22.00;99.90
25983;DHT22;13773;48.868;10.730;2023-09-07T09:30:57;21.90;99.90
25983;DHT22;13773;48.868;10.730;2023-09-07T09:33:23;22.00;99.90
25983;DHT22;13773;48.868;10.730;2023-09-07T09:35:49;22.10;99.90
25983;DHT22;13773;48.868;10.730;2023-09-07T09:38:16;22.30;99.90
25983;DHT22;13773;48.868;10.730;2023-09-07T09:40:42;22.40;99.90
25983;DHT22;13773;48.868;10.730;2023-09-07T09:43:09;22.30;99.90
25983;DHT22;13773;48.868;10.730;2023-09-07T09:45:35;22.40;99.90
25983;DHT22;13773;48.868;10.730;2023-09-07T09:48:01;22.50;99.90
25983;DHT22;13773;48.868;10.730;2023-09-07T09:50:28;22.60;99.90
25983;DHT22;13773;48.868;10.730;2023-09-07T09:52:55;22.50;99.90
25983;DHT22;13773;48.868;10.730;2023-09-07T09:55:22;22.70;99.90
25983;DHT22;13773;48.868;10.730;2023-09-07T09:57:48;22.70;99.90
25983;DHT22;13773;48.868;10.730;2023-09-07T10:00:15;22.70;99.90
25983;DHT22;13773;48.868;10.730;2023-09-07T10:02:50;22.80;99.90
25983;DHT22;13773;48.868;10.730;2023-09-07T10:05:18;22.70;99.90
25983;DHT22;13773;48.868;10.730;2023-09-07T10:07:47;22.70;99.90
25983;DHT22;13773;48.868;10.730;2023-09-07T10:10:14;23.00;99.90
25983;DHT22;13773;48.868;10.730;2023-09-07T10:12:43;23.20;99.90
25983;DHT22;13773;48.868;10.730;2023-09-07T10:15:23;23.40;99.90
25983;DHT22;13773;48.868;10.730;2023-09-07T10:17:49;23.00;99.90
25983;DHT22;13773;48.868;10.730;2023-09-07T10:20:19;22.90;99.90
25983;DHT22;13773;48.868;10.730;2023-09-07T10:22:48;23.00;99.90
25983;DHT22;13773;48.868;10.730;2023-09-07T10:25:23;23.20;99.90
25983;DHT22;13773;48.868;10.730;2023-09-07T10:27:49;23.30;99.90
25983;DHT22;13773;48.868;10.730;2023-09-07T10:30:15;23.60;99.90
25983;DHT22;13773;48.868;10.730;2023-09-07T10:32:48;23.70;99.90
25983;DHT22;13773;48.868;10.730;2023-09-07T10:35:19;23.80;99.90
25983;DHT22;13773;48.868;10.730;2023-09-07T10:37:47;24.00;99.90
25983;DHT22;13773;48.868;10.730;2023-09-07T10:40:19;23.90;99.90
25983;DHT22;13773;48.868;10.730;2023-09-07T10:42:46;24.10;99.90
25983;DHT22;13773;48.868;10.730;2023-09-07T10:45:14;24.10;99.90
25983;DHT22;13773;48.868;10.730;2023-09-07T10:47:45;24.00;99.90
25983;DHT22;13773;48.868;10.730;2023-09-07T10:50:14;23.90;99.90
25983;DHT22;13773;48.868;10.730;2023-09-07T10:52:41;23.90;99.90
25983;DHT22;13773;48.868;10.730;2023-09-07T10:55:10;23.80;99.90
25983;DHT22;13773;48.868;10.730;2023-09-07T10:57:47;23.80;99.90
25983;DHT22;13773;48.868;10.730;2023-09-07T11:00:13;23.90;99.90
25983;DHT22;13773;48.868;10.730;2023-09-07T11:02:40;24.00;99.90
25983;DHT22;13773;48.868;10.730;2023-09-07T11:05:07;24.10;99.90
25983;DHT22;13773;48.868;10.730;2023-09-07T11:07:33;24.10;99.90
25983;DHT22;13773;48.868;10.730;2023-09-07T11:09:59;24.30;99.90
25983;DHT22;13773;48.868;10.730;2023-09-07T11:12:25;24.40;99.90
25983;DHT22;13773;48.868;10.730;2023-09-07T11:14:51;24.60;99.90
25983;DHT22;13773;48.868;10.730;2023-09-07T11:17:18;24.60;99.90
25983;DHT22;13773;48.868;10.730;2023-09-07T11:19:44;24.80;99.90
25983;DHT22;13773;48.868;10.730;2023-09-07T11:22:10;24.90;99.90
25983;DHT22;13773;48.868;10.730;2023-09-07T11:24:36;25.00;99.90
25983;DHT22;13773;48.868;10.730;2023-09-07T11:27:02;25.00;99.90
25983;DHT22;13773;48.868;10.730;2023-09-07T11:29:31;24.90;99.90
25983;DHT22;13773;48.868;10.730;2023-09-07T11:32:07;24.70;99.90
25983;DHT22;13773;48.868;10.730;2023-09-07T11:34:33;24.70;99.90
25983;DHT22;13773;48.868;10.730;2023-09-07T11:36:58;25.00;99.90
25983;DHT22;13773;48.868;10.730;2023-09-07T11:39:24;22.60;99.90
25983;DHT22;13773;48.868;10.730;2023-09-07T11:41:49;25.10;99.90
25983;DHT22;13773;48.868;10.730;2023-09-07T11:44:15;25.10;99.90
25983;DHT22;13773;48.868;10.730;2023-09-07T11:46:41;24.80;99.90
25983;DHT22;13773;48.868;10.730;2023-09-07T11:49:06;25.00;99.90
25983;DHT22;13773;48.868;10.730;2023-09-07T11:51:34;25.20;99.90
25983;DHT22;13773;48.868;10.730;2023-09-07T11:54:02;25.00;99.90
25983;DHT22;13773;48.868;10.730;2023-09-07T11:56:28;25.20;99.90
25983;DHT22;13773;48.868;10.730;2023-09-07T11:58:53;25.10;99.90
25983;DHT22;13773;48.868;10.730;2023-09-07T12:01:20;25.20;99.90
25983;DHT22;13773;48.868;10.730;2023-09-07T12:03:46;25.60;99.90
25983;DHT22;13773;48.868;10.730;2023-09-07T12:06:13;25.40;99.90
25983;DHT22;13773;48.868;10.730;2023-09-07T12:08:42;25.30;99.90
25983;DHT22;13773;48.868;10.730;2023-09-07T12:11:08;25.60;99.90
25983;DHT22;13773;48.868;10.730;2023-09-07T12:13:34;25.60;99.90
25983;DHT22;13773;48.868;10.730;2023-09-07T12:16:00;25.50;99.90
25983;DHT22;13773;48.868;10.730;2023-09-07T12:18:27;25.40;99.90
25983;DHT22;13773;48.868;10.730;2023-09-07T12:20:53;25.60;99.90
25983;DHT22;13773;48.868;10.730;2023-09-07T12:23:19;25.40;99.90
25983;DHT22;13773;48.868;10.730;2023-09-07T12:25:45;25.50;99.90
25983;DHT22;13773;48.868;10.730;2023-09-07T12:28:16;25.60;99.90
25983;DHT22;13773;48.868;10.730;2023-09-07T12:30:41;25.80;99.90
25983;DHT22;13773;48.868;10.730;2023-09-07T12:33:10;25.90;99.90
25983;DHT22;13773;48.868;10.730;2023-09-07T12:35:35;25.80;99.90
25983;DHT22;13773;48.868;10.730;2023-09-07T12:38:01;25.90;99.90
25983;DHT22;13773;48.868;10.730;2023-09-07T12:40:28;26.00;99.90
25983;DHT22;13773;48.868;10.730;2023-09-07T12:42:54;26.20;99.90
25983;DHT22;13773;48.868;10.730;2023-09-07T12:45:19;26.30;99.90
25983;DHT22;13773;48.868;10.730;2023-09-07T12:47:45;26.20;99.90
25983;DHT22;13773;48.868;10.730;2023-09-07T12:50:11;26.30;99.90
25983;DHT22;13773;48.868;10.730;2023-09-07T12:52:36;26.40;99.90
25983;DHT22;13773;48.868;10.730;2023-09-07T12:55:04;26.20;99.90
25983;DHT22;13773;48.868;10.730;2023-09-07T12:57:30;26.00;99.90
25983;DHT22;13773;48.868;10.730;2023-09-07T12:59:56;26.20;99.90
25983;DHT22;13773;48.868;10.730;2023-09-07T13:05:30;26.30;99.90
25983;DHT22;13773;48.868;10.730;2023-09-07T13:07:55;26.10;99.90
25983;DHT22;13773;48.868;10.730;2023-09-07T13:10:23;26.20;99.90
25983;DHT22;13773;48.868;10.730;2023-09-07T13:12:48;25.90;99.90
25983;DHT22;13773;48.868;10.730;2023-09-07T13:15:14;26.00;99.90
25983;DHT22;13773;48.868;10.730;2023-09-07T13:17:40;26.10;99.90
25983;DHT22;13773;48.868;10.730;2023-09-07T13:20:06;26.10;99.90
25983;DHT22;13773;48.868;10.730;2023-09-07T13:22:31;26.10;99.90
25983;DHT22;13773;48.868;10.730;2023-09-07T13:24:57;26.10;99.90
25983;DHT22;13773;48.868;10.730;2023-09-07T13:27:23;26.10;99.90
25983;DHT22;13773;48.868;10.730;2023-09-07T13:29:51;26.20;99.90
25983;DHT22;13773;48.868;10.730;2023-09-07T13:32:17;26.40;99.90
25983;DHT22;13773;48.868;10.730;2023-09-07T13:34:42;26.40;99.90
25983;DHT22;13773;48.868;10.730;2023-09-07T13:37:08;26.50;99.90
25983;DHT22;13773;48.868;10.730;2023-09-07T13:39:34;26.50;99.90
25983;DHT22;13773;48.868;10.730;2023-09-07T13:41:59;26.50;99.90
25983;DHT22;13773;48.868;10.730;2023-09-07T13:44:25;26.40;99.90
25983;DHT22;13773;48.868;10.730;2023-09-07T13:46:50;26.50;99.90
25983;DHT22;13773;48.868;10.730;2023-09-07T13:49:18;26.60;99.90
25983;DHT22;13773;48.868;10.730;2023-09-07T13:51:44;26.30;99.90
25983;DHT22;13773;48.868;10.730;2023-09-07T13:54:10;26.20;99.90
25983;DHT22;13773;48.868;10.730;2023-09-07T13:56:35;26.30;99.90
25983;DHT22;13773;48.868;10.730;2023-09-07T13:59:02;26.30;99.90
25983;DHT22;13773;48.868;10.730;2023-09-07T14:01:27;26.40;99.90
25983;DHT22;13773;48.868;10.730;2023-09-07T14:03:53;26.50;99.90
25983;DHT22;13773;48.868;10.730;2023-09-07T14:06:19;26.40;99.90
25983;DHT22;13773;48.868;10.730;2023-09-07T14:08:47;26.30;99.90
25983;DHT22;13773;48.868;10.730;2023-09-07T14:11:14;26.40;99.90
25983;DHT22;13773;48.868;10.730;2023-09-07T14:13:39;26.50;99.90
25983;DHT22;13773;48.868;10.730;2023-09-07T14:16:05;26.70;99.90
25983;DHT22;13773;48.868;10.730;2023-09-07T14:18:31;26.70;99.90
25983;DHT22;13773;48.868;10.730;2023-09-07T14:20:57;26.70;99.90
25983;DHT22;13773;48.868;10.730;2023-09-07T14:23:26;26.70;99.90
25983;DHT22;13773;48.868;10.730;2023-09-07T14:25:52;26.60;99.90
25983;DHT22;13773;48.868;10.730;2023-09-07T14:28:18;26.50;99.90
25983;DHT22;13773;48.868;10.730;2023-09-07T14:30:44;26.40;99.90
25983;DHT22;13773;48.868;10.730;2023-09-07T14:33:09;26.30;99.90
25983;DHT22;13773;48.868;10.730;2023-09-07T14:35:35;26.30;99.90
25983;DHT22;13773;48.868;10.730;2023-09-07T14:38:01;26.30;99.90
25983;DHT22;13773;48.868;10.730;2023-09-07T14:40:27;26.30;99.90
25983;DHT22;13773;48.868;10.730;2023-09-07T14:42:54;26.30;99.90
25983;DHT22;13773;48.868;10.730;2023-09-07T14:45:25;26.30;99.90
25983;DHT22;13773;48.868;10.730;2023-09-07T14:47:51;26.30;99.90
25983;DHT22;13773;48.868;10.730;2023-09-07T14:50:17;26.40;99.90
25983;DHT22;13773;48.868;10.730;2023-09-07T14:52:43;26.40;99.90
25983;DHT22;13773;48.868;10.730;2023-09-07T14:55:13;26.20;99.90
25983;DHT22;13773;48.868;10.730;2023-09-07T14:57:38;26.30;99.90
25983;DHT22;13773;48.868;10.730;2023-09-07T15:00:04;26.30;99.90
25983;DHT22;13773;48.868;10.730;2023-09-07T15:02:30;26.30;99.90
25983;DHT22;13773;48.868;10.730;2023-09-07T15:04:56;26.20;99.90
25983;DHT22;13773;48.868;10.730;2023-09-07T15:07:22;26.10;99.90
25983;DHT22;13773;48.868;10.730;2023-09-07T15:09:49;26.20;99.90
25983;DHT22;13773;48.868;10.730;2023-09-07T15:12:15;26.10;99.90
25983;DHT22;13773;48.868;10.730;2023-09-07T15:14:40;26.20;99.90
25983;DHT22;13773;48.868;10.730;2023-09-07T15:17:06;26.20;99.90